Time;durP1;ratioP1;P1;durP2;ratioP2;P2;SDS_P1;SDS_P2;PMS_P1;PMS_P2;Temp;Humidity;BMP_temperature;BMP_pressure;BME280_temperature;BME280_humidity;BME280_pressure;Samples;Min_cycle;Max_cycle;Signal;HPM_P1;HPM_P2
2022/09/05 00:01:59;;;;;;;11.18;7.25;;;;;;;14.93;100.00;91509.97;5054348;28;20035;-65
2022/09/05 00:04:43;;;;;;;;;;;;;;;14.90;100.00;91507.16;5052635;28;20416;-65
2022/09/05 00:07:20;;;;;;;9.45;6.65;;;;;;;14.66;100.00;91508.47;5054063;28;20047;-65
2022/09/05 00:09:55;;;;;;;11.63;7.25;;;;;;;14.57;100.00;91499.69;5053938;28;20025;-65
2022/09/05 00:12:21;;;;;;;10.35;7.20;;;;;;;14.63;100.00;91505.63;5053841;28;20040;-65
2022/09/05 00:15:22;;;;;;;9.68;6.60;;;;;;;14.55;100.00;91512.59;5053927;28;20028;-65
2022/09/05 00:18:30;;;;;;;8.73;6.70;;;;;;;14.66;100.00;91503.09;5053852;28;20025;-65
2022/09/05 00:21:12;;;;;;;10.05;7.22;;;;;;;14.57;100.00;91493.53;5053844;28;20021;-65
2022/09/05 00:23:55;;;;;;;11.18;6.63;;;;;;;14.43;100.00;91509.75;5053768;28;20040;-65
2022/09/05 00:26:31;;;;;;;11.43;7.95;;;;;;;14.47;100.00;91509.91;5053692;28;20056;-65
2022/09/05 00:29:07;;;;;;;13.13;7.93;;;;;;;14.51;100.00;91511.63;5053686;28;20068;-65
2022/09/05 00:32:09;;;;;;;8.45;6.65;;;;;;;14.63;100.00;91513.66;5053598;28;20573;-65
2022/09/05 00:34:38;;;;;;;13.57;7.60;;;;;;;14.64;100.00;91516.03;5053639;28;20135;-65
2022/09/05 00:37:04;;;;;;;9.15;6.53;;;;;;;14.60;100.00;91511.63;5053569;28;20409;-65
2022/09/05 00:39:39;;;;;;;10.02;7.22;;;;;;;14.71;100.00;91501.38;5053548;28;20048;-65
2022/09/05 00:42:18;;;;;;;11.00;7.35;;;;;;;14.66;100.00;91508.47;5053389;28;20056;-65
2022/09/05 00:45:02;;;;;;;11.35;7.63;;;;;;;14.81;100.00;91512.53;5053479;28;20084;-65
2022/09/05 00:47:32;;;;;;;10.60;7.43;;;;;;;14.89;100.00;91510.94;5053444;28;20029;-65
2022/09/05 00:50:32;;;;;;;12.18;8.15;;;;;;;14.88;100.00;91512.84;5053509;28;20383;-65
2022/09/05 00:53:20;;;;;;;10.95;8.10;;;;;;;14.91;100.00;91514.88;5030827;28;20510;-65
2022/09/05 00:56:31;;;;;;;10.88;7.30;;;;;;;14.82;100.00;91505.28;5053172;28;20498;-65
2022/09/05 00:59:28;;;;;;;11.38;7.65;;;;;;;14.86;100.00;91503.53;5005829;28;20119;-65
2022/09/05 01:02:10;;;;;;;12.45;8.13;;;;;;;14.92;100.00;91510.28;5052876;28;20384;-65
2022/09/05 01:04:47;;;;;;;10.93;7.55;;;;;;;14.85;100.00;91510.78;5052938;28;20087;-65
2022/09/05 01:07:50;;;;;;;9.77;7.70;;;;;;;14.87;100.00;91521.19;5053025;28;20433;-65
2022/09/05 01:10:33;;;;;;;11.02;7.63;;;;;;;14.89;100.00;91509.03;5052815;28;20503;-65
2022/09/05 01:13:27;;;;;;;9.20;6.75;;;;;;;14.93;100.00;91509.19;5052835;28;20542;-64
2022/09/05 01:15:55;;;;;;;10.13;7.27;;;;;;;14.82;100.00;91507.94;5052878;28;20025;-65
2022/09/05 01:18:38;;;;;;;10.63;7.47;;;;;;;14.77;100.00;91516.94;5053034;28;20111;-65
2022/09/05 01:21:17;;;;;;;9.55;7.38;;;;;;;14.55;100.00;91511.81;5052743;28;20111;-65
2022/09/05 01:23:56;;;;;;;8.93;6.68;;;;;;;14.45;100.00;91517.50;5052621;28;20525;-65
2022/09/05 01:26:50;;;;;;;9.85;7.10;;;;;;;14.47;100.00;91521.41;5052628;28;20441;-65
2022/09/05 01:29:24;;;;;;;7.07;5.78;;;;;;;14.44;100.00;91511.34;5046844;28;20037;-65
2022/09/05 01:32:14;;;;;;;8.18;6.70;;;;;;;14.39;100.00;91509.59;5052610;28;20083;-65
2022/09/05 01:35:14;;;;;;;10.18;7.10;;;;;;;14.35;100.00;91507.84;5052786;28;20025;-65
2022/09/05 01:37:50;;;;;;;8.07;6.38;;;;;;;14.22;100.00;91504.28;5052453;28;20501;-65
2022/09/05 01:40:47;;;;;;;12.20;7.30;;;;;;;14.23;100.00;91513.09;5052607;28;20454;-65
2022/09/05 01:43:38;;;;;;;10.20;6.65;;;;;;;14.18;100.00;91515.91;5051382;28;20037;-65
2022/09/05 01:46:37;;;;;;;7.80;6.38;;;;;;;14.13;100.00;91518.75;5052279;28;20120;-64
2022/09/05 01:49:15;;;;;;;8.18;6.07;;;;;;;14.09;100.00;91516.69;5052170;28;20558;-65
2022/09/05 01:52:03;;;;;;;8.85;4.20;;;;;;;13.95;100.00;91510.72;5052169;28;20032;-64
2022/09/05 01:54:50;;;;;;;9.23;6.18;;;;;;;14.01;100.00;91511.34;5052160;28;20039;-65
2022/09/05 01:57:16;;;;;;;9.98;6.97;;;;;;;14.00;100.00;91523.94;5052095;28;20102;-65
2022/09/05 01:59:54;;;;;;;10.05;7.18;;;;;;;14.15;100.00;91516.53;5052091;28;20066;-65
2022/09/05 02:02:40;;;;;;;9.02;6.85;;;;;;;14.16;100.00;91529.59;5052116;28;20108;-65
2022/09/05 02:05:19;;;;;;;9.18;6.47;;;;;;;14.25;100.00;91535.75;5058351;28;20089;-65
2022/09/05 02:08:09;;;;;;;6.13;5.25;;;;;;;14.20;100.00;91527.88;5071938;28;20137;-65
2022/09/05 02:10:59;;;;;;;7.90;6.28;;;;;;;14.16;100.00;91518.09;5071869;28;20033;-65
2022/09/05 02:13:31;;;;;;;9.40;6.72;;;;;;;14.08;100.00;91525.84;5071436;28;20090;-65
2022/09/05 02:16:23;;;;;;;10.13;7.15;;;;;;;14.14;100.00;91526.44;5071283;28;20108;-65
2022/09/05 02:19:07;;;;;;;10.00;7.30;;;;;;;14.27;100.00;91516.69;5053771;28;20374;-65
2022/09/05 02:21:34;;;;;;;8.93;7.00;;;;;;;14.26;100.00;91523.16;5071513;28;20486;-65
2022/09/05 02:24:11;;;;;;;8.35;6.45;;;;;;;14.23;100.00;91531.81;5071527;28;20033;-65
2022/09/05 02:29:28;;;;;;;10.32;7.00;;;;;;;14.39;100.00;91514.16;5088877;28;20040;-66
2022/09/05 02:32:07;;;;;;;9.30;6.85;;;;;;;14.47;100.00;91531.34;5091569;28;20084;-65
2022/09/05 02:34:45;;;;;;;8.90;6.80;;;;;;;14.51;100.00;91524.25;5091548;28;20016;-65
2022/09/05 02:37:40;;;;;;;9.18;6.53;;;;;;;14.53;100.00;91519.38;5091216;28;20520;-66
2022/09/05 02:40:34;;;;;;;7.88;6.32;;;;;;;14.42;100.00;91523.44;5091522;28;20020;-65
2022/09/05 02:43:02;;;;;;;9.48;6.47;;;;;;;14.25;100.00;91513.56;5054880;28;20043;-65
2022/09/05 02:45:30;;;;;;;7.57;5.10;;;;;;;14.20;100.00;91516.38;5091419;28;20469;-65
2022/09/05 02:48:17;;;;;;;8.02;6.30;;;;;;;14.06;100.00;91517.34;5091264;28;20031;-65
2022/09/05 02:50:51;;;;;;;9.43;6.32;;;;;;;13.98;100.00;91526.13;5091280;28;20548;-65
2022/09/05 02:53:20;;;;;;;7.50;5.57;;;;;;;13.85;100.00;91529.75;5091353;28;20028;-65
2022/09/05 02:56:05;;;;;;;9.05;6.03;;;;;;;13.82;100.00;91522.34;5091264;28;20038;-65
2022/09/05 02:58:36;;;;;;;8.93;6.80;;;;;;;13.91;100.00;91531.19;5090576;28;20377;-65
2022/09/05 03:01:15;;;;;;;10.07;6.65;;;;;;;13.84;100.00;91533.50;5091113;28;20052;-65
2022/09/05 03:04:14;;;;;;;9.43;6.43;;;;;;;13.84;100.00;91536.19;5091178;28;20036;-65
2022/09/05 03:07:00;;;;;;;10.10;7.20;;;;;;;13.98;100.00;91536.03;5091010;28;20024;-66
2022/09/05 03:09:50;;;;;;;10.35;7.30;;;;;;;14.15;100.00;91543.28;5091077;28;20028;-65
2022/09/05 03:12:47;;;;;;;10.80;7.32;;;;;;;14.31;100.00;91533.69;5091100;28;20103;-65
2022/09/05 03:15:37;;;;;;;10.25;6.80;;;;;;;14.36;100.00;91538.91;5091130;28;20024;-65
2022/09/05 03:18:05;;;;;;;7.97;5.95;;;;;;;14.25;100.00;91540.31;5091187;28;20021;-65
2022/09/05 03:21:04;;;;;;;10.23;7.30;;;;;;;14.36;100.00;91539.69;5090959;28;20055;-65
2022/09/05 03:23:35;;;;;;;9.77;6.82;;;;;;;14.42;100.00;91550.22;5090964;28;20028;-65
2022/09/05 03:26:03;;;;;;;9.25;6.75;;;;;;;14.44;100.00;91551.50;5092720;28;20102;-65
2022/09/05 03:28:48;;;;;;;10.80;6.95;;;;;;;14.49;100.00;91548.66;5094660;28;20044;-65
2022/09/05 03:31:37;;;;;;;10.38;6.68;;;;;;;14.49;100.00;91562.03;5094939;28;20027;-65
2022/09/05 03:34:17;;;;;;;9.18;6.18;;;;;;;14.47;100.00;91558.09;5076759;28;20161;-65
2022/09/05 03:37:20;;;;;;;8.52;6.43;;;;;;;14.43;100.00;91562.50;5094725;28;20027;-65
2022/09/05 03:40:08;;;;;;;11.82;6.97;;;;;;;14.42;100.00;91563.59;5094867;28;20062;-65
2022/09/05 03:42:33;;;;;;;11.13;6.93;;;;;;;14.42;100.00;91574.31;5094756;28;20023;-65
2022/09/05 03:45:23;;;;;;;11.23;7.90;;;;;;;14.43;100.00;91563.28;5094715;28;20032;-65
2022/09/05 03:47:52;;;;;;;11.40;7.70;;;;;;;14.49;100.00;91572.75;5094502;28;20431;-65
2022/09/05 03:50:43;;;;;;;10.63;7.47;;;;;;;14.47;100.00;91574.97;5094522;28;20024;-66
2022/09/05 03:53:24;;;;;;;10.20;7.28;;;;;;;14.34;100.00;91573.97;5091335;28;20032;-66
2022/09/05 03:56:28;;;;;;;10.80;7.85;;;;;;;14.40;100.00;91579.97;5094460;28;20481;-66
2022/09/05 03:59:46;;;;;;;10.98;7.30;;;;;;;14.41;100.00;91588.81;5094463;28;20113;-66
2022/09/05 04:02:16;;;;;;;10.27;7.47;;;;;;;14.50;100.00;91595.75;5073089;28;20406;-66
2022/09/05 04:04:49;;;;;;;10.35;7.47;;;;;;;14.51;100.00;91589.28;5094329;28;20024;-66
2022/09/05 04:07:27;;;;;;;11.63;7.50;;;;;;;14.48;100.00;91597.16;5094127;28;20036;-66
2022/09/05 04:09:59;;;;;;;9.80;7.40;;;;;;;14.54;100.00;91594.03;5075806;28;20364;-66
2022/09/05 04:12:37;;;;;;;12.63;8.20;;;;;;;14.52;100.00;91596.25;5094186;28;20032;-66
2022/09/05 04:15:03;;;;;;;10.52;7.55;;;;;;;14.55;100.00;91598.28;5094071;28;20032;-66
2022/09/05 04:17:49;;;;;;;11.13;6.88;;;;;;;14.58;100.00;91603.00;5093917;28;20409;-66
2022/09/05 04:20:33;;;;;;;10.85;7.53;;;;;;;14.52;100.00;91598.91;5094000;28;20031;-66
2022/09/05 04:23:22;;;;;;;11.40;7.50;;;;;;;14.52;100.00;91598.13;5093950;28;20028;-66
2022/09/05 04:26:32;;;;;;;12.25;7.80;;;;;;;14.43;100.00;91598.09;5094120;28;20032;-66
2022/09/05 04:29:19;;;;;;;9.73;7.18;;;;;;;14.33;100.00;91606.41;5031313;28;20045;-66
2022/09/05 04:32:17;;;;;;;11.93;7.63;;;;;;;14.46;100.00;91600.16;5071417;28;20126;-66
2022/09/05 04:34:57;;;;;;;11.80;7.13;;;;;;;14.42;100.00;91601.88;5093765;28;20028;-66
2022/09/05 04:37:37;;;;;;;12.05;8.55;;;;;;;14.40;100.00;91614.78;5092635;28;20386;-66
2022/09/05 04:40:41;;;;;;;11.10;7.03;;;;;;;14.28;100.00;91614.63;5093704;28;20024;-66
2022/09/05 04:43:09;;;;;;;10.82;7.45;;;;;;;14.23;100.00;91614.78;5061988;28;20090;-66
2022/09/05 04:46:03;;;;;;;15.38;7.15;;;;;;;14.15;100.00;91613.66;5093630;28;20043;-66
2022/09/05 04:48:51;;;;;;;12.50;7.72;;;;;;;14.13;100.00;91612.38;5093354;28;20027;-66
2022/09/05 04:51:47;;;;;;;8.15;6.45;;;;;;;14.08;100.00;91624.81;5093449;28;20067;-66
2022/09/05 04:54:24;;;;;;;9.95;5.88;;;;;;;13.98;100.00;91622.44;5093355;28;20425;-66
2022/09/05 04:57:29;;;;;;;10.20;6.65;;;;;;;14.07;100.00;91622.47;5093184;28;20556;-66
2022/09/05 05:00:11;;;;;;;10.15;7.05;;;;;;;14.14;100.00;91624.66;5030869;28;20048;-66
2022/09/05 05:02:54;;;;;;;11.38;6.72;;;;;;;14.33;100.00;91628.63;5087392;28;20044;-66
2022/09/05 05:05:26;;;;;;;9.73;6.55;;;;;;;14.58;100.00;91629.00;5093213;28;20436;-66
2022/09/05 05:08:28;;;;;;;11.30;7.47;;;;;;;14.62;100.00;91630.72;5093069;28;20024;-66
2022/09/05 05:11:01;;;;;;;8.32;6.03;;;;;;;14.81;100.00;91626.91;5093089;28;20046;-66
2022/09/05 05:13:40;;;;;;;11.00;7.07;;;;;;;15.40;100.00;91629.81;5093100;28;20039;-66
2022/09/05 05:16:13;;;;;;;10.23;5.75;;;;;;;15.64;100.00;91630.06;5092903;28;20031;-66
2022/09/05 05:18:51;;;;;;;12.32;7.25;;;;;;;15.37;100.00;91644.63;5092770;28;20555;-66
2022/09/05 05:21:23;;;;;;;13.93;7.35;;;;;;;15.36;100.00;91642.28;5092837;28;20020;-66
2022/09/05 05:23:53;;;;;;;8.98;5.97;;;;;;;15.29;100.00;91643.53;5092824;28;20027;-66
2022/09/05 05:26:27;;;;;;;10.65;6.40;;;;;;;15.02;100.00;91649.28;5092765;28;20035;-66
2022/09/05 05:29:09;;;;;;;8.75;5.95;;;;;;;14.86;100.00;91656.25;5092422;28;20119;-66
2022/09/05 05:31:39;;;;;;;11.32;6.88;;;;;;;14.75;100.00;91655.75;5092461;28;20040;-66
2022/09/05 05:34:20;;;;;;;11.48;7.10;;;;;;;14.76;100.00;91664.59;5092609;28;20028;-67
2022/09/05 05:36:58;;;;;;;10.93;7.05;;;;;;;14.79;100.00;91662.06;5092458;28;20408;-67
2022/09/05 05:39:27;;;;;;;13.63;8.02;;;;;;;14.96;100.00;91661.25;5092521;28;20188;-67
2022/09/05 05:41:54;;;;;;;9.30;6.43;;;;;;;15.10;100.00;91669.91;5092494;28;20032;-66
2022/09/05 05:44:27;;;;;;;11.90;7.10;;;;;;;15.14;100.00;91662.81;5092717;28;20040;-66
2022/09/05 05:47:04;;;;;;;11.15;7.30;;;;;;;15.42;100.00;91671.28;5092230;28;20046;-67
2022/09/05 05:49:33;;;;;;;11.40;6.38;;;;;;;15.57;100.00;91669.97;5092115;28;20036;-66
2022/09/05 05:52:07;;;;;;;9.77;6.13;;;;;;;15.60;100.00;91663.19;5092333;28;20409;-66
2022/09/05 05:54:50;;;;;;;10.80;6.60;;;;;;;15.51;100.00;91668.59;5092321;28;20106;-66
2022/09/05 05:57:33;;;;;;;12.32;7.57;;;;;;;15.71;100.00;91670.59;5092145;28;20024;-66
2022/09/05 06:00:03;;;;;;;9.47;6.67;;;;;;;15.91;100.00;91676.34;5092275;28;20086;-66
2022/09/05 06:03:01;;;;;;;9.43;7.20;;;;;;;16.03;100.00;91676.47;5092118;28;20281;-66
2022/09/05 06:05:39;;;;;;;12.38;7.45;;;;;;;16.96;100.00;91676.22;5092329;28;20024;-67
2022/09/05 06:08:08;;;;;;;13.00;8.30;;;;;;;18.18;100.00;91675.78;5091968;28;20509;-67
2022/09/05 06:10:54;;;;;;;16.35;10.10;;;;;;;18.44;100.00;91678.09;5091956;28;20028;-67
2022/09/05 06:13:23;;;;;;;19.92;11.35;;;;;;;17.91;100.00;91682.59;5091952;28;20078;-66
2022/09/05 06:16:30;;;;;;;31.58;17.45;;;;;;;17.83;100.00;91676.19;5091884;28;20448;-66
2022/09/05 06:19:14;;;;;;;11.43;7.18;;;;;;;18.50;100.00;91679.47;5091753;28;20032;-67
2022/09/05 06:21:40;;;;;;;8.70;6.15;;;;;;;18.95;100.00;91683.91;5092086;28;20039;-67
2022/09/05 06:24:18;;;;;;;11.30;7.40;;;;;;;19.52;100.00;91686.28;5091801;28;20547;-67
2022/09/05 06:27:05;;;;;;;10.98;7.30;;;;;;;19.48;100.00;91682.72;5091609;28;20024;-67
2022/09/05 06:29:55;;;;;;;9.52;6.32;;;;;;;20.10;100.00;91685.88;5091648;28;20106;-66
2022/09/05 06:32:55;;;;;;;10.35;6.85;;;;;;;20.12;100.00;91687.09;5091846;28;20039;-66
2022/09/05 06:35:56;;;;;;;13.10;6.93;;;;;;;21.15;100.00;91686.81;5091560;28;20031;-66
2022/09/05 06:38:22;;;;;;;9.25;6.82;;;;;;;25.22;73.60;91680.41;5091476;28;20028;-66
2022/09/05 06:41:12;;;;;;;7.13;4.88;;;;;;;27.89;55.92;91682.66;5091524;28;20027;-67
2022/09/05 06:43:58;;;;;;;7.25;5.10;;;;;;;26.88;56.78;91692.22;5091532;28;20020;-67
2022/09/05 06:46:34;;;;;;;4.63;4.07;;;;;;;30.62;48.15;91684.94;5091416;28;20503;-68
2022/09/05 06:49:05;;;;;;;6.53;5.75;;;;;;;32.59;43.50;91691.25;5091282;28;20028;-67
2022/09/05 06:52:08;;;;;;;5.80;5.22;;;;;;;34.41;40.39;91689.47;5091478;28;20024;-67
2022/09/05 06:55:08;;;;;;;6.35;5.72;;;;;;;34.21;38.84;91690.38;5039982;28;20144;-67
2022/09/05 06:58:00;;;;;;;5.95;4.65;;;;;;;32.08;40.15;91692.69;5091190;28;20036;-67
2022/09/05 07:00:47;;;;;;;9.52;4.78;;;;;;;31.27;43.10;91696.50;5091090;28;20041;-67
2022/09/05 07:03:50;;;;;;;7.45;5.85;;;;;;;30.76;43.16;91692.19;5091313;28;20546;-67
2022/09/05 07:06:36;;;;;;;7.00;5.47;;;;;;;28.73;46.80;91685.34;5091287;28;20028;-68
2022/09/05 07:09:17;;;;;;;6.70;5.45;;;;;;;26.98;50.71;91696.09;5091266;28;20027;-67
2022/09/05 07:12:02;;;;;;;8.18;5.40;;;;;;;26.79;52.92;91689.88;5091278;28;20493;-67
2022/09/05 07:14:34;;;;;;;10.00;5.38;;;;;;;31.25;44.81;91698.91;5091283;28;20028;-67
2022/09/05 07:17:10;;;;;;;6.10;4.97;;;;;;;33.11;40.36;91695.19;5091449;28;20056;-67
2022/09/05 07:20:01;;;;;;;6.82;5.55;;;;;;;32.46;40.58;91707.66;5091254;28;20024;-67
2022/09/05 07:22:31;;;;;;;5.35;4.28;;;;;;;34.07;36.54;91698.28;5091226;28;20029;-67
2022/09/05 07:25:01;;;;;;;8.57;5.68;;;;;;;30.90;42.02;91696.69;5091160;28;20552;-67
2022/09/05 07:27:38;;;;;;;7.40;5.53;;;;;;;32.18;41.14;91702.69;5090854;28;20043;-67
2022/09/05 07:30:05;;;;;;;5.93;4.90;;;;;;;34.81;37.48;91704.44;5090961;28;20066;-67
2022/09/05 07:32:41;;;;;;;6.07;5.47;;;;;;;36.21;35.02;91711.78;5091343;28;20032;-67
2022/09/05 07:35:12;;;;;;;6.60;5.35;;;;;;;34.21;35.71;91708.94;5091029;28;20024;-67
2022/09/05 07:37:42;;;;;;;6.80;5.43;;;;;;;29.41;42.34;91707.50;5090963;28;20465;-67
2022/09/05 07:40:13;;;;;;;5.68;4.97;;;;;;;27.22;46.09;91705.50;5091038;28;20103;-67
2022/09/05 07:42:49;;;;;;;7.80;5.82;;;;;;;25.25;50.28;91697.94;5091009;28;20111;-67
2022/09/05 07:45:23;;;;;;;6.40;5.63;;;;;;;25.05;51.98;91692.75;5090996;28;20036;-67
2022/09/05 07:47:58;;;;;;;6.47;5.40;;;;;;;25.86;52.09;91691.63;5090903;28;20040;-67
2022/09/05 07:50:26;;;;;;;12.80;9.55;;;;;;;26.94;50.46;91690.66;5090896;28;20056;-67
2022/09/05 07:52:55;;;;;;;8.65;6.03;;;;;;;30.41;43.54;91693.44;5090892;28;20043;-67
2022/09/05 07:55:30;;;;;;;5.97;4.55;;;;;;;33.53;38.26;91694.16;5090881;28;20568;-67
2022/09/05 07:58:00;;;;;;;6.75;5.93;;;;;;;34.24;37.02;91692.28;5090993;28;20024;-67
2022/09/05 08:00:28;;;;;;;7.60;6.13;;;;;;;34.34;36.44;91689.66;5090894;28;20027;-67
2022/09/05 08:02:54;;;;;;;6.45;4.90;;;;;;;35.77;33.66;91681.22;5090682;28;20036;-67
2022/09/05 08:05:22;;;;;;;6.72;5.13;;;;;;;33.05;37.29;91681.94;5090735;28;20432;-67
2022/09/05 08:07:54;;;;;;;4.95;4.45;;;;;;;34.14;34.65;91682.31;5090968;28;20374;-67
2022/09/05 08:10:34;;;;;;;4.93;4.35;;;;;;;35.83;32.56;91679.47;5090688;28;20036;-67
2022/09/05 08:13:33;;;;;;;5.07;4.45;;;;;;;34.12;33.87;91672.91;5088206;28;20028;-65
2022/09/05 08:15:58;;;;;;;4.13;3.72;;;;;;;31.34;36.76;91667.34;5094476;28;20031;-65
2022/09/05 08:18:24;;;;;;;4.45;4.05;;;;;;;32.21;35.58;91668.06;5094122;28;20024;-65
2022/09/05 08:21:17;;;;;;;4.97;4.20;;;;;;;32.59;35.09;91671.19;5094052;28;20515;-65
2022/09/05 08:23:48;;;;;;;;;;;;;;;34.88;34.37;91672.31;5094868;28;20112;-65
2022/09/05 08:26:23;;;;;;;3.92;3.50;;;;;;;34.64;32.52;91664.28;5094029;28;19908;-65
2022/09/05 08:29:00;;;;;;;5.90;4.95;;;;;;;32.61;36.71;91668.78;5093873;28;20044;-65
2022/09/05 08:31:51;;;;;;;4.85;3.80;;;;;;;29.96;38.15;91670.88;5094009;28;20024;-65
2022/09/05 08:34:35;;;;;;;5.28;4.00;;;;;;;32.37;37.15;91666.16;5094034;28;20028;-65
2022/09/05 08:37:01;;;;;;;4.80;4.25;;;;;;;35.99;33.35;91668.25;5093872;28;20028;-65
2022/09/05 08:39:30;;;;;;;4.47;3.97;;;;;;;36.37;32.22;91672.81;5093901;28;20024;-65
2022/09/05 08:42:08;;;;;;;4.65;4.10;;;;;;;36.33;32.91;91676.97;5094024;28;20111;-65
2022/09/05 08:44:58;;;;;;;5.60;3.78;;;;;;;36.04;32.32;91671.66;5093816;28;20032;-65
2022/09/05 08:47:42;;;;;;;4.90;4.22;;;;;;;36.07;32.68;91679.03;5093675;28;20031;-65
2022/09/05 08:50:18;;;;;;;7.47;6.03;;;;;;;33.51;33.57;91669.00;5093656;28;20208;-65
2022/09/05 08:53:08;;;;;;;4.47;3.50;;;;;;;35.49;31.07;91676.66;5093511;28;20028;-65
2022/09/05 08:56:04;;;;;;;9.43;8.20;;;;;;;34.14;32.96;91665.75;5093500;28;20504;-65
2022/09/05 08:58:54;;;;;;;5.85;4.82;;;;;;;33.04;35.70;91661.09;5093832;28;20577;-65
2022/09/05 09:01:40;;;;;;;5.68;3.80;;;;;;;36.16;32.25;91662.50;5093453;28;20482;-65
2022/09/05 09:04:12;;;;;;;4.90;3.38;;;;;;;36.53;30.17;91669.84;5093325;28;20043;-65
2022/09/05 09:07:06;;;;;;;3.95;3.55;;;;;;;35.80;31.27;91674.03;5093238;28;20085;-65
2022/09/05 09:09:56;;;;;;;4.40;4.00;;;;;;;36.32;31.14;91678.16;5047858;28;20409;-65
2022/09/05 09:12:42;;;;;;;4.20;3.80;;;;;;;37.66;30.90;91674.91;5075078;28;20054;-65
2022/09/05 09:15:46;;;;;;;4.20;3.70;;;;;;;37.71;28.24;91673.53;5093128;28;20028;-65
2022/09/05 09:18:17;;;;;;;4.63;4.00;;;;;;;37.51;28.45;91668.41;5041700;28;20063;-65
2022/09/05 09:20:53;;;;;;;4.40;4.00;;;;;;;37.44;28.92;91663.16;5093312;28;20442;-65
2022/09/05 09:23:30;;;;;;;4.85;4.00;;;;;;;37.04;28.91;91674.25;5092639;28;20039;-65
2022/09/05 09:26:12;;;;;;;5.53;4.47;;;;;;;35.93;30.80;91675.56;5092888;28;20080;-65
2022/09/05 09:28:41;;;;;;;7.40;4.63;;;;;;;37.41;29.96;91675.97;5092678;28;20044;-65
2022/09/05 09:31:28;;;;;;;5.43;4.88;;;;;;;38.20;28.86;91681.03;5092889;28;20016;-65
2022/09/05 09:34:15;;;;;;;10.15;7.30;;;;;;;38.38;27.33;91683.03;5092821;28;20028;-65
2022/09/05 09:37:15;;;;;;;4.90;4.40;;;;;;;37.65;28.04;91678.16;5092616;28;20093;-66
2022/09/05 09:40:22;;;;;;;4.07;3.55;;;;;;;38.48;27.96;91682.53;5041381;28;20093;-65
2022/09/05 09:43:19;;;;;;;9.52;7.57;;;;;;;38.33;28.58;91687.16;4990884;28;20035;-65
2022/09/05 09:46:08;;;;;;;16.30;13.55;;;;;;;37.04;30.16;91669.47;5092569;28;20028;-65
2022/09/05 09:49:06;;;;;;;4.43;4.03;;;;;;;36.77;29.66;91680.44;5092668;28;20082;-66
2022/09/05 09:51:40;;;;;;;3.60;3.30;;;;;;;35.08;29.17;91681.91;5092448;28;20119;-64
2022/09/05 09:54:31;;;;;;;4.20;3.80;;;;;;;35.90;29.21;91679.22;5092315;28;20024;-65
2022/09/05 09:57:33;;;;;;;4.95;4.45;;;;;;;35.42;31.88;91684.00;5092183;28;20936;-65
2022/09/05 10:00:23;;;;;;;3.65;3.33;;;;;;;35.89;29.47;91686.00;5092333;28;20032;-65
2022/09/05 10:03:12;;;;;;;3.60;3.28;;;;;;;36.70;28.53;91678.72;5079885;28;20524;-65
2022/09/05 10:05:58;;;;;;;5.00;3.85;;;;;;;37.14;29.43;91675.84;5092274;28;20081;-65
2022/09/05 10:08:33;;;;;;;3.13;2.92;;;;;;;35.41;28.44;91673.38;5092125;28;20031;-65
2022/09/05 10:11:18;;;;;;;3.20;2.90;;;;;;;33.97;29.96;91677.28;5091962;28;20036;-65
2022/09/05 10:14:25;;;;;;;3.47;3.08;;;;;;;29.52;34.21;91665.13;5092014;28;20516;-65
2022/09/05 10:16:53;;;;;;;3.70;3.40;;;;;;;28.26;37.49;91671.97;5073696;28;20155;-64
2022/09/05 10:19:56;;;;;;;3.03;2.72;;;;;;;31.48;35.32;91656.06;5073706;28;20028;-64
2022/09/05 10:22:48;;;;;;;3.45;3.13;;;;;;;33.45;31.23;91658.91;5091953;28;20088;-65
2022/09/05 10:26:11;;;;;;;3.55;3.20;;;;;;;31.96;33.76;91652.03;5091851;28;20031;-64
2022/09/05 10:28:36;;;;;;;18.55;13.15;;;;;;;30.60;36.09;91651.56;5019137;28;20053;-65
2022/09/05 10:31:13;;;;;;;21.75;16.02;;;;;;;31.24;35.02;91641.56;5091699;28;20123;-65
2022/09/05 10:33:55;;;;;;;11.30;8.27;;;;;;;32.50;31.94;91640.66;5091735;28;20066;-65
2022/09/05 10:36:22;;;;;;;3.17;2.88;;;;;;;31.91;31.48;91638.78;5091068;28;20030;-64
2022/09/05 10:39:17;;;;;;;3.00;2.50;;;;;;;32.52;32.14;91635.53;5091544;28;20028;-65
2022/09/05 10:41:48;;;;;;;2.88;2.60;;;;;;;33.55;31.33;91633.81;5091554;28;20103;-64
2022/09/05 10:44:23;;;;;;;2.97;2.50;;;;;;;35.08;29.14;91626.59;5091586;28;20020;-65
2022/09/05 10:47:15;;;;;;;2.70;2.50;;;;;;;35.37;28.81;91626.47;5091639;28;20028;-65
2022/09/05 10:49:47;;;;;;;2.53;2.33;;;;;;;34.50;29.06;91628.78;5052792;28;20055;-65
2022/09/05 10:52:21;;;;;;;3.20;2.60;;;;;;;35.19;28.77;91626.25;5091464;28;20028;-66
2022/09/05 10:55:23;;;;;;;2.83;2.63;;;;;;;34.69;28.96;91616.75;5073213;28;20451;-65
2022/09/05 10:58:02;;;;;;;2.88;2.65;;;;;;;33.20;29.12;91624.44;5091551;28;20036;-65
2022/09/05 11:00:46;;;;;;;3.10;2.80;;;;;;;31.87;31.12;91614.06;5091337;28;20508;-65
2022/09/05 11:03:17;;;;;;;3.15;2.85;;;;;;;31.72;31.61;91615.53;5091351;28;20508;-65
2022/09/05 11:05:55;;;;;;;2.90;2.50;;;;;;;32.89;29.99;91612.25;5091209;28;20509;-65
2022/09/05 11:08:35;;;;;;;3.17;2.55;;;;;;;32.41;30.93;91602.72;5091223;28;20047;-65
2022/09/05 11:11:13;;;;;;;3.58;2.42;;;;;;;33.64;30.92;91606.38;5091181;28;20477;-65
2022/09/05 11:13:50;;;;;;;2.20;1.92;;;;;;;34.67;28.86;91605.38;5091286;28;20053;-65
2022/09/05 11:16:33;;;;;;;3.10;2.80;;;;;;;35.64;29.14;91598.22;5091129;28;20040;-65
2022/09/05 11:19:21;;;;;;;3.47;2.85;;;;;;;36.07;28.79;91604.25;5091234;28;20032;-66
2022/09/05 11:22:01;;;;;;;2.63;2.10;;;;;;;35.69;28.07;91596.91;5090583;28;20040;-66
2022/09/05 11:24:37;;;;;;;2.05;1.85;;;;;;;34.39;29.34;91598.72;5091204;28;20048;-66
2022/09/05 11:27:15;;;;;;;2.85;2.55;;;;;;;33.67;30.14;91599.19;5090856;28;20055;-66
2022/09/05 11:29:43;;;;;;;3.30;3.00;;;;;;;34.12;30.79;91604.66;5091043;28;20120;-66
2022/09/05 11:32:33;;;;;;;2.65;2.45;;;;;;;34.47;29.35;91600.06;5091321;28;20456;-65
2022/09/05 11:35:16;;;;;;;2.60;2.40;;;;;;;34.06;30.66;91609.16;5091030;28;20048;-65
2022/09/05 11:37:54;;;;;;;;;;;;;;;35.45;30.20;91587.47;5091391;28;20110;-65
2022/09/05 11:40:30;;;;;;;2.80;2.60;;;;;;;34.90;30.03;91596.00;5091042;28;19915;-65
2022/09/05 11:43:08;;;;;;;4.10;2.45;;;;;;;34.34;30.67;91595.72;5090858;28;20111;-66
2022/09/05 11:45:36;;;;;;;3.20;2.90;;;;;;;33.89;30.69;91593.88;5091011;28;20088;-65
2022/09/05 11:48:23;;;;;;;3.10;2.70;;;;;;;32.26;32.10;91596.72;5094224;28;20489;-65
2022/09/05 11:50:57;;;;;;;3.53;2.95;;;;;;;31.71;34.43;91580.94;5094749;28;20027;-65
2022/09/05 11:53:37;;;;;;;3.28;2.97;;;;;;;32.24;32.65;91588.13;5094774;28;20016;-65
2022/09/05 11:56:03;;;;;;;2.67;2.35;;;;;;;34.21;30.26;91570.84;5094581;28;20488;-65
2022/09/05 11:59:12;;;;;;;3.10;2.80;;;;;;;34.27;30.77;91582.91;5094950;28;20056;-65
2022/09/05 12:02:02;;;;;;;3.28;2.97;;;;;;;34.02;30.70;91580.88;5072970;28;20262;-65
2022/09/05 12:04:46;;;;;;;2.65;2.45;;;;;;;33.69;30.97;91584.97;5094766;28;20170;-65
2022/09/05 12:07:20;;;;;;;2.72;2.53;;;;;;;33.69;31.28;91579.44;5094358;28;20532;-65
2022/09/05 12:09:55;;;;;;;3.28;2.70;;;;;;;32.63;32.59;91580.94;5094335;28;20039;-64
2022/09/05 12:12:43;;;;;;;2.80;2.60;;;;;;;32.08;31.60;91588.09;5094323;28;20036;-65
2022/09/05 12:15:15;;;;;;;2.95;2.60;;;;;;;32.26;33.79;91580.19;5094292;28;20021;-65
2022/09/05 12:18:01;;;;;;;3.13;2.78;;;;;;;32.01;31.75;91578.00;5094348;28;20028;-65
2022/09/05 12:20:50;;;;;;;2.80;2.60;;;;;;;31.54;32.88;91563.63;5094438;28;20093;-65
2022/09/05 12:23:41;;;;;;;4.03;3.47;;;;;;;31.61;34.09;91563.47;5094102;28;20131;-65
2022/09/05 12:26:15;;;;;;;5.53;2.92;;;;;;;31.38;33.60;91569.03;5093960;28;20066;-65
2022/09/05 12:28:46;;;;;;;20.65;13.45;;;;;;;31.82;33.86;91565.03;5093653;28;20189;-65
2022/09/05 12:31:11;;;;;;;3.47;3.15;;;;;;;33.29;30.72;91561.16;5093822;28;20028;-65
2022/09/05 12:33:37;;;;;;;14.38;10.52;;;;;;;33.69;31.89;91568.41;5093849;28;20054;-65
2022/09/05 12:36:12;;;;;;;3.72;3.33;;;;;;;32.53;32.71;91563.47;5093753;28;20058;-65
2022/09/05 12:38:58;;;;;;;2.90;2.70;;;;;;;29.55;34.42;91553.84;5093912;28;20024;-64